Albany, Texas
Current Conditions -  °F | °C
As of 3:15 AM on Friday 24 Oct 2014 (Local Time) from KBKD Reporting Station
Clear Clear  
Wind Chill: 66°   Ceiling: Unl
Heat Index: 66°   Visibility: 7mi
Dew Point: 59°   Wind: 7mph
Humidity: 78%   Direction: 170°S
Pressure: 30.1"   Gusts: NA
Location:  32.72°N, 99.3°W
Report Text: KBKD 240815Z AUTO 17006KT 7SM CLR 19/15 A3010 RMK AO2 T01880148
Loading
Personal Weather Stations






























Interactive Weather Map
Tropical Storm Tracking
New forecast layout! Learn more

10-Day Weather Forecast

Advertisements
Track Severe Weather on mobile